Time;durP1;ratioP1;P1;durP2;ratioP2;P2;SDS_P1;SDS_P2;PMS_P1;PMS_P2;Temp;Humidity;BMP_temperature;BMP_pressure;BME280_temperature;BME280_humidity;BME280_pressure;Samples;Min_cycle;Max_cycle;Signal;HPM_P1;HPM_P2
2022/10/20 00:01:00;;;;;;;1.25;1.20;;;;;;;4.58;87.62;99507.88;1728046;83;21016;-73
2022/10/20 00:03:26;;;;;;;1.40;1.30;;;;;;;4.54;87.78;99509.34;1727487;83;21144;-76
2022/10/20 00:05:54;;;;;;;1.40;1.20;;;;;;;4.50;87.83;99505.98;1724795;83;21098;-69
2022/10/20 00:08:20;;;;;;;1.10;1.10;;;;;;;4.46;87.98;99500.26;1724412;81;21012;-69
2022/10/20 00:10:55;;;;;;;1.10;1.10;;;;;;;4.42;87.97;99504.39;1725958;82;21567;-69
2022/10/20 00:13:23;;;;;;;3.33;0.98;;;;;;;4.38;88.08;99506.67;1732980;81;21015;-69
2022/10/20 00:15:53;;;;;;;2.27;1.40;;;;;;;4.36;88.16;99507.38;1735434;82;21058;-70
2022/10/20 00:18:20;;;;;;;1.32;1.20;;;;;;;4.36;88.26;99503.39;1722746;82;21528;-75
2022/10/20 00:20:47;;;;;;;1.30;1.20;;;;;;;4.34;88.12;99502.80;1718115;83;21541;-74
2022/10/20 00:23:15;;;;;;;1.92;1.42;;;;;;;4.33;88.08;99522.46;1720497;83;21065;-72
2022/10/20 00:25:42;;;;;;;4.05;1.40;;;;;;;4.31;88.07;99517.06;1717664;83;21068;-79
2022/10/20 00:28:09;;;;;;;0.90;0.90;;;;;;;4.28;88.13;99496.17;1733326;81;21199;-77
2022/10/20 00:30:36;;;;;;;1.55;1.07;;;;;;;4.27;88.29;99529.97;1737032;82;21273;-75
2022/10/20 00:33:03;;;;;;;1.45;1.35;;;;;;;4.26;88.44;99513.72;1737167;82;21591;-78
2022/10/20 00:35:32;;;;;;;1.10;1.10;;;;;;;4.26;88.52;99516.89;1720443;82;21086;-76
2022/10/20 00:37:58;;;;;;;1.30;1.20;;;;;;;4.25;88.62;99535.22;1737217;82;21054;-77
2022/10/20 00:40:25;;;;;;;1.20;0.98;;;;;;;4.24;88.77;99518.42;1725338;82;21075;-72
2022/10/20 00:42:52;;;;;;;2.92;1.10;;;;;;;4.23;88.93;99530.09;1722345;81;20976;-70
2022/10/20 00:45:20;;;;;;;1.62;1.20;;;;;;;4.24;89.11;99534.39;1722459;83;21322;-73
2022/10/20 00:47:52;;;;;;;1.00;1.00;;;;;;;4.28;89.21;99528.94;1722530;83;21047;-76
2022/10/20 00:50:29;;;;;;;2.72;1.37;;;;;;;4.31;89.21;99536.52;1722748;83;21087;-72
2022/10/20 00:52:56;;;;;;;2.27;2.08;;;;;;;4.34;89.14;99526.77;1722386;83;21108;-74
2022/10/20 00:55:26;;;;;;;2.25;1.10;;;;;;;4.33;89.09;99542.43;1722377;83;21055;-79
2022/10/20 00:57:54;;;;;;;1.60;1.10;;;;;;;4.34;89.05;99532.09;1722460;81;21553;-78
2022/10/20 01:00:23;;;;;;;1.10;1.10;;;;;;;4.35;89.00;99538.23;1696177;83;22218;-79
2022/10/20 01:02:50;;;;;;;1.57;1.12;;;;;;;4.37;88.92;99531.66;1724241;83;21022;-79
2022/10/20 01:05:17;;;;;;;3.22;1.32;;;;;;;4.41;88.83;99540.05;1724579;83;21061;-76
2022/10/20 01:07:45;;;;;;;2.85;1.30;;;;;;;4.45;88.58;99546.58;1724001;83;20967;-77
2022/10/20 01:10:11;;;;;;;2.83;1.20;;;;;;;4.46;88.20;99545.52;1724140;83;21035;-71
2022/10/20 01:12:48;;;;;;;1.40;1.30;;;;;;;4.46;88.01;99533.55;1721484;83;21024;-69
2022/10/20 01:15:36;;;;;;;2.95;1.20;;;;;;;4.46;87.72;99536.20;1726489;82;21030;-70
2022/10/20 01:18:13;;;;;;;4.15;2.92;;;;;;;4.47;87.75;99537.84;1727094;82;21171;-70
2022/10/20 01:21:04;;;;;;;1.80;1.12;;;;;;;4.48;87.69;99532.83;1728649;82;21050;-79
2022/10/20 01:23:57;;;;;;;1.52;1.42;;;;;;;4.53;87.58;99532.18;1720728;83;20972;-78
2022/10/20 01:26:43;;;;;;;1.05;1.05;;;;;;;4.55;87.01;99536.28;1704737;83;20994;-76
2022/10/20 01:29:29;;;;;;;2.10;1.10;;;;;;;4.56;86.80;99535.73;1728278;82;21022;-76
2022/10/20 01:32:18;;;;;;;1.07;1.05;;;;;;;4.57;86.76;99530.20;1708545;82;21035;-73
2022/10/20 01:35:05;;;;;;;1.62;1.10;;;;;;;4.59;86.57;99526.00;1735492;82;21606;-75
2022/10/20 01:37:43;;;;;;;1.57;1.47;;;;;;;4.59;86.08;99528.16;1735326;82;21135;-67
2022/10/20 01:40:31;;;;;;;1.30;1.20;;;;;;;4.61;85.78;99544.72;1735491;82;21071;-74
2022/10/20 01:43:02;;;;;;;1.65;1.55;;;;;;;4.64;85.53;99539.50;1735253;82;21047;-75
2022/10/20 01:45:31;;;;;;;1.57;1.47;;;;;;;4.67;85.38;99545.71;1733291;82;21097;-68
2022/10/20 01:48:03;;;;;;;2.45;1.20;;;;;;;4.68;85.02;99548.17;1728925;81;20999;-70
2022/10/20 01:50:32;;;;;;;1.80;1.10;;;;;;;4.68;84.76;99540.69;1724658;83;21005;-69
2022/10/20 01:52:59;;;;;;;15.20;1.70;;;;;;;4.69;84.59;99548.48;1702117;83;21081;-70
2022/10/20 01:55:25;;;;;;;1.45;1.35;;;;;;;4.71;83.83;99541.58;1702014;83;21285;-71
2022/10/20 01:58:03;;;;;;;1.40;1.30;;;;;;;4.72;83.86;99560.02;1724478;83;21053;-72
2022/10/20 02:00:30;;;;;;;1.30;1.30;;;;;;;4.75;83.75;99546.77;1724430;83;21501;-74
2022/10/20 02:03:05;;;;;;;1.60;1.50;;;;;;;4.74;83.73;99551.83;1726122;82;21038;-73
2022/10/20 02:05:58;;;;;;;1.32;1.22;;;;;;;4.74;83.75;99551.31;1724109;83;21637;-73
2022/10/20 02:08:48;;;;;;;1.72;1.62;;;;;;;4.74;83.90;99552.64;1646780;83;21130;-71
2022/10/20 02:11:50;;;;;;;1.22;1.15;;;;;;;4.75;83.76;99556.09;1726209;83;21488;-71
2022/10/20 02:14:17;;;;;;;1.27;1.25;;;;;;;4.76;83.73;99563.06;1714764;83;21030;-72
2022/10/20 02:16:55;;;;;;;1.45;1.35;;;;;;;4.76;83.64;99561.22;1728515;82;21097;-71
2022/10/20 02:19:25;;;;;;;1.00;1.00;;;;;;;4.76;83.61;99566.55;1724755;82;21131;-71
2022/10/20 02:21:52;;;;;;;1.30;1.20;;;;;;;4.77;83.60;99560.71;1722701;83;22299;-71
2022/10/20 02:24:19;;;;;;;2.08;1.50;;;;;;;4.76;83.63;99564.40;1722759;83;21228;-69
2022/10/20 02:26:45;;;;;;;1.30;1.20;;;;;;;4.75;83.55;99570.23;1711776;82;20971;-75
2022/10/20 02:29:22;;;;;;;0.93;0.93;;;;;;;4.73;83.48;99565.66;1719065;82;21333;-74
2022/10/20 02:31:48;;;;;;;1.50;1.40;;;;;;;4.73;83.68;99592.30;1723036;82;21107;-74
2022/10/20 02:34:15;;;;;;;1.98;1.50;;;;;;;4.72;83.69;99581.34;1703314;84;21019;-74
2022/10/20 02:36:42;;;;;;;3.33;1.40;;;;;;;4.73;83.82;99572.32;1703189;84;21084;-73
2022/10/20 02:39:10;;;;;;;1.20;1.10;;;;;;;4.76;84.02;99587.05;1700977;84;21004;-74
2022/10/20 02:41:37;;;;;;;1.25;1.15;;;;;;;4.73;83.68;99576.83;1703671;82;20978;-73
2022/10/20 02:44:04;;;;;;;1.30;1.20;;;;;;;4.75;83.87;99580.08;1702587;83;21122;-75
2022/10/20 02:46:31;;;;;;;1.20;1.10;;;;;;;4.74;83.83;99593.12;1702589;83;21058;-73
2022/10/20 02:48:58;;;;;;;1.10;1.00;;;;;;;4.75;83.87;99596.87;1702433;84;21930;-74
2022/10/20 02:51:27;;;;;;;1.25;1.15;;;;;;;4.78;83.88;99592.98;1702147;84;21011;-73
2022/10/20 02:53:53;;;;;;;1.50;1.40;;;;;;;4.80;83.77;99574.41;1707928;83;21029;-73
2022/10/20 02:56:21;;;;;;;2.95;1.37;;;;;;;4.80;83.63;99589.06;1702955;84;20950;-74
2022/10/20 02:58:48;;;;;;;1.00;1.00;;;;;;;4.79;83.65;99593.30;1694513;83;21061;-74
2022/10/20 03:01:15;;;;;;;1.50;1.40;;;;;;;4.77;83.59;99596.67;1722028;82;21164;-74
2022/10/20 03:03:41;;;;;;;1.30;1.20;;;;;;;4.78;83.66;99598.31;1724039;83;20964;-75
2022/10/20 03:06:11;;;;;;;2.17;1.55;;;;;;;4.77;83.58;99601.49;1724023;83;20999;-75
2022/10/20 03:08:39;;;;;;;2.30;2.10;;;;;;;4.80;83.67;99613.55;1721254;83;21063;-76
2022/10/20 03:11:06;;;;;;;1.15;1.15;;;;;;;4.82;83.49;99591.52;1721212;83;21120;-75
2022/10/20 03:13:33;;;;;;;1.07;1.07;;;;;;;4.79;83.39;99630.59;1714196;83;21119;-76
2022/10/20 03:16:00;;;;;;;1.32;1.22;;;;;;;4.78;83.21;99609.79;1705140;82;21039;-75
2022/10/20 03:18:27;;;;;;;1.77;1.00;;;;;;;4.78;83.31;99595.65;1736788;82;21035;-75
2022/10/20 03:20:53;;;;;;;1.22;1.22;;;;;;;4.78;83.40;99591.66;1736658;82;21516;-74
2022/10/20 03:23:21;;;;;;;1.47;1.35;;;;;;;4.78;83.41;99594.31;1734284;82;21054;-75
2022/10/20 03:25:47;;;;;;;1.10;1.10;;;;;;;4.81;83.50;99596.54;1704989;83;21852;-74
2022/10/20 03:28:14;;;;;;;1.42;1.32;;;;;;;4.82;83.46;99608.33;1726311;83;21533;-75
2022/10/20 03:30:41;;;;;;;1.85;1.67;;;;;;;4.80;83.38;99604.23;1707922;82;21607;-76
2022/10/20 03:33:08;;;;;;;1.40;1.30;;;;;;;4.77;83.51;99599.34;1724707;82;21070;-77
2022/10/20 03:35:36;;;;;;;1.42;1.35;;;;;;;4.77;83.60;99600.67;1724291;83;21678;-75
2022/10/20 03:38:03;;;;;;;1.10;1.10;;;;;;;4.75;83.81;99586.22;1723372;83;21041;-76
2022/10/20 03:40:30;;;;;;;1.37;1.27;;;;;;;4.76;83.81;99595.86;1720257;83;21050;-75
2022/10/20 03:42:57;;;;;;;2.52;1.80;;;;;;;4.77;83.93;99614.81;1719996;83;20969;-75
2022/10/20 03:45:24;;;;;;;1.37;1.10;;;;;;;4.77;83.99;99599.34;1723979;81;20983;-75
2022/10/20 03:47:50;;;;;;;1.92;1.20;;;;;;;4.76;84.25;99609.69;1737082;81;21110;-75
2022/10/20 03:50:17;;;;;;;1.17;1.17;;;;;;;4.75;84.57;99626.70;1725615;83;21167;-76
2022/10/20 03:52:43;;;;;;;1.30;1.20;;;;;;;4.73;84.94;99602.13;1720452;83;21596;-73
2022/10/20 03:55:09;;;;;;;1.50;1.40;;;;;;;4.70;85.43;99598.03;1696988;83;21707;-72
2022/10/20 03:57:36;;;;;;;1.17;1.17;;;;;;;4.71;85.80;99611.66;1719924;83;21088;-76
2022/10/20 04:00:06;;;;;;;4.00;1.20;;;;;;;4.70;86.05;99604.69;1707280;81;20979;-74
2022/10/20 04:02:39;;;;;;;2.50;1.40;;;;;;;4.70;86.31;99599.91;1748888;81;22510;-72
2022/10/20 04:05:07;;;;;;;1.45;1.10;;;;;;;4.68;86.51;99603.29;1754027;81;21058;-73
2022/10/20 04:07:33;;;;;;;1.30;1.20;;;;;;;4.66;86.77;99610.16;1725850;81;21050;-72
2022/10/20 04:10:01;;;;;;;1.22;1.20;;;;;;;4.67;86.91;99601.14;1718208;82;20959;-73
2022/10/20 04:12:28;;;;;;;4.33;1.52;;;;;;;4.67;87.07;99610.46;1725559;83;21137;-73
2022/10/20 04:14:56;;;;;;;1.30;1.20;;;;;;;4.69;87.02;99615.08;1725545;83;21310;-74
2022/10/20 04:17:24;;;;;;;2.92;1.50;;;;;;;4.69;86.90;99621.73;1724630;83;20960;-73
2022/10/20 04:19:52;;;;;;;1.40;1.30;;;;;;;4.70;86.85;99617.22;1719610;83;21142;-76
2022/10/20 04:22:18;;;;;;;1.40;1.30;;;;;;;4.70;86.84;99618.56;1737336;81;21098;-76
2022/10/20 04:24:45;;;;;;;1.82;1.72;;;;;;;4.67;86.90;99631.77;1758824;81;21046;-76
2022/10/20 04:27:11;;;;;;;1.67;1.57;;;;;;;4.66;86.94;99629.31;1758436;81;21797;-76
2022/10/20 04:29:39;;;;;;;1.95;1.50;;;;;;;4.64;87.08;99626.06;1740147;81;21062;-75
2022/10/20 04:32:06;;;;;;;1.80;1.70;;;;;;;4.64;87.24;99617.56;1738428;81;21086;-74
2022/10/20 04:34:35;;;;;;;3.58;1.40;;;;;;;4.64;87.34;99626.06;1737659;81;21054;-74
2022/10/20 04:37:01;;;;;;;4.80;1.80;;;;;;;4.65;87.52;99630.36;1709111;82;21038;-74
2022/10/20 04:39:28;;;;;;;1.92;1.67;;;;;;;4.61;87.79;99623.80;1731971;82;21992;-74
2022/10/20 04:41:55;;;;;;;1.47;1.37;;;;;;;4.57;88.33;99626.59;1730984;82;21007;-75
2022/10/20 04:44:22;;;;;;;4.65;1.70;;;;;;;4.57;88.33;99626.59;1731609;81;21085;-74
2022/10/20 04:46:48;;;;;;;3.40;1.57;;;;;;;4.58;88.65;99632.23;1707619;82;21056;-75
2022/10/20 04:49:15;;;;;;;1.47;1.35;;;;;;;4.57;88.83;99632.73;1732028;81;21548;-75
2022/10/20 04:51:41;;;;;;;1.65;1.50;;;;;;;4.59;89.09;99648.52;1732206;82;21161;-75
2022/10/20 04:54:08;;;;;;;3.98;1.40;;;;;;;4.59;89.42;99641.34;1728840;83;20964;-74
2022/10/20 04:56:38;;;;;;;1.90;1.40;;;;;;;4.56;89.67;99663.05;1706908;83;20975;-74
2022/10/20 04:59:06;;;;;;;1.70;1.60;;;;;;;4.53;89.85;99647.52;1727160;83;21107;-75
2022/10/20 05:01:34;;;;;;;1.50;1.40;;;;;;;4.53;90.19;99644.03;1717995;83;21122;-74
2022/10/20 05:04:00;;;;;;;3.12;1.87;;;;;;;4.52;90.26;99649.86;1729713;82;21137;-73
2022/10/20 05:06:29;;;;;;;1.40;1.30;;;;;;;4.52;90.34;99659.19;1712385;82;21044;-75
2022/10/20 05:09:00;;;;;;;1.60;1.50;;;;;;;4.52;90.29;99666.36;1722673;83;21035;-74
2022/10/20 05:11:28;;;;;;;1.55;1.45;;;;;;;4.50;90.27;99659.94;1725753;83;21559;-75
2022/10/20 05:13:55;;;;;;;1.77;1.30;;;;;;;4.51;90.38;99662.88;1725768;83;21098;-73
2022/10/20 05:16:22;;;;;;;1.40;1.30;;;;;;;4.52;90.42;99664.52;1725812;81;21213;-75
2022/10/20 05:18:50;;;;;;;0.95;0.93;;;;;;;4.53;90.40;99670.66;1728159;83;20947;-73
2022/10/20 05:21:20;;;;;;;1.30;1.20;;;;;;;4.52;90.33;99667.17;1709719;82;21086;-74
2022/10/20 05:23:48;;;;;;;1.92;1.40;;;;;;;4.52;90.36;99663.18;1726851;82;21059;-75
2022/10/20 05:26:17;;;;;;;1.20;1.10;;;;;;;4.50;90.34;99681.23;1707008;83;21052;-74
2022/10/20 05:28:47;;;;;;;1.42;1.22;;;;;;;4.49;90.40;99668.13;1718659;82;21994;-73
2022/10/20 05:31:15;;;;;;;1.10;1.10;;;;;;;4.48;90.66;99675.29;1679360;82;21072;-74
2022/10/20 05:33:49;;;;;;;1.15;1.15;;;;;;;4.48;90.67;99671.30;1732497;82;21547;-73
2022/10/20 05:36:21;;;;;;;2.35;1.90;;;;;;;4.48;90.91;99672.63;1709391;82;21086;-73
2022/10/20 05:38:51;;;;;;;1.42;1.32;;;;;;;4.48;90.66;99680.61;1731389;82;21238;-73
2022/10/20 05:41:21;;;;;;;1.32;1.27;;;;;;;4.45;90.58;99689.55;1729914;82;20951;-73
2022/10/20 05:43:59;;;;;;;1.45;1.35;;;;;;;4.42;90.76;99699.27;1721278;82;21010;-74
2022/10/20 05:46:28;;;;;;;1.27;1.20;;;;;;;4.41;90.83;99691.00;1712357;82;21026;-74
2022/10/20 05:48:57;;;;;;;1.20;1.10;;;;;;;4.41;91.04;99689.67;1712394;83;21567;-79
2022/10/20 05:51:27;;;;;;;1.37;1.30;;;;;;;4.39;91.03;99690.69;1724875;83;21578;-76
2022/10/20 05:53:55;;;;;;;1.10;1.10;;;;;;;4.41;91.08;99705.13;1718470;83;21613;-73
2022/10/20 05:56:21;;;;;;;2.35;1.22;;;;;;;4.43;91.19;99714.22;1705480;82;20990;-74
2022/10/20 05:58:49;;;;;;;1.00;1.00;;;;;;;4.40;91.08;99702.16;1727255;82;21051;-73
2022/10/20 06:01:19;;;;;;;2.15;1.47;;;;;;;4.37;91.06;99707.88;1727919;81;21107;-74
2022/10/20 06:03:52;;;;;;;1.95;1.85;;;;;;;4.35;91.19;99708.11;1729808;81;21094;-73
2022/10/20 06:06:20;;;;;;;;;;;;;;;4.32;91.45;99728.98;1727097;81;21312;-73
2022/10/20 06:08:47;;;;;;;2.35;1.30;;;;;;;4.32;91.83;99712.51;1704649;83;20184;-72
2022/10/20 06:11:15;;;;;;;1.10;1.10;;;;;;;4.33;91.81;99712.81;1727702;83;20954;-73
2022/10/20 06:13:43;;;;;;;1.25;1.17;;;;;;;4.36;91.93;99712.39;1717115;83;21098;-74
2022/10/20 06:16:14;;;;;;;1.92;1.77;;;;;;;4.37;91.92;99711.87;1720408;81;20994;-77
2022/10/20 06:18:43;;;;;;;1.22;1.12;;;;;;;4.36;91.97;99729.69;1728864;82;21156;-73
2022/10/20 06:21:19;;;;;;;1.22;1.12;;;;;;;4.36;92.03;99720.91;1729225;82;21052;-73
2022/10/20 06:23:46;;;;;;;1.10;1.00;;;;;;;4.35;92.25;99725.93;1713852;82;21119;-74
2022/10/20 06:26:17;;;;;;;1.07;1.07;;;;;;;4.32;92.45;99715.67;1704764;84;21105;-75
2022/10/20 06:28:46;;;;;;;1.47;1.40;;;;;;;4.32;92.68;99750.28;1678716;84;21695;-75
2022/10/20 06:31:19;;;;;;;1.87;1.00;;;;;;;4.30;92.78;99727.89;1688223;83;21259;-75
2022/10/20 06:33:47;;;;;;;1.15;1.10;;;;;;;4.26;93.04;99738.65;1682514;85;21053;-78
2022/10/20 06:36:14;;;;;;;1.00;1.00;;;;;;;4.24;93.32;99724.72;1673548;85;21046;-78
2022/10/20 06:38:40;;;;;;;1.00;1.00;;;;;;;4.23;93.60;99729.73;1652672;85;21081;-73
2022/10/20 06:41:15;;;;;;;1.20;1.10;;;;;;;4.22;93.94;99727.30;1655769;86;21093;-74
2022/10/20 06:43:44;;;;;;;1.80;1.00;;;;;;;4.21;94.22;99740.30;1650258;85;21205;-73
2022/10/20 06:46:17;;;;;;;1.30;1.20;;;;;;;4.24;94.45;99744.68;1704857;84;21034;-73
2022/10/20 06:48:44;;;;;;;2.25;1.27;;;;;;;4.24;94.37;99737.20;1693159;83;21595;-74
2022/10/20 06:51:17;;;;;;;2.70;1.40;;;;;;;4.23;94.34;99732.39;1691118;83;21006;-73
2022/10/20 06:53:44;;;;;;;1.62;1.05;;;;;;;4.20;94.45;99735.48;1676434;84;21088;-73
2022/10/20 06:56:19;;;;;;;1.67;1.40;;;;;;;4.21;94.63;99749.61;1683199;85;22011;-72
2022/10/20 06:58:48;;;;;;;1.70;1.60;;;;;;;4.22;94.63;99741.39;1678920;83;21089;-72
2022/10/20 07:01:24;;;;;;;0.95;0.95;;;;;;;4.24;94.77;99755.33;1659657;83;21072;-74
2022/10/20 07:03:54;;;;;;;1.15;1.07;;;;;;;4.27;94.85;99750.91;1660047;85;21080;-74
2022/10/20 07:06:27;;;;;;;1.00;1.00;;;;;;;4.31;94.74;99757.99;1691778;84;21088;-73
2022/10/20 07:08:58;;;;;;;2.27;1.20;;;;;;;4.31;94.68;99753.48;1700342;83;21255;-72
2022/10/20 07:11:27;;;;;;;0.90;0.90;;;;;;;4.32;94.67;99757.77;1693886;84;21154;-76
2022/10/20 07:13:54;;;;;;;1.05;1.05;;;;;;;4.31;94.66;99752.16;1688940;84;21588;-72
2022/10/20 07:16:24;;;;;;;1.27;1.17;;;;;;;4.32;94.66;99759.61;1682472;83;21081;-73
2022/10/20 07:18:51;;;;;;;1.30;1.20;;;;;;;4.32;94.74;99752.44;1694551;84;21070;-76
2022/10/20 07:21:21;;;;;;;1.75;1.32;;;;;;;4.34;94.73;99773.54;1668928;85;21617;-76
2022/10/20 07:23:55;;;;;;;2.27;1.45;;;;;;;4.35;94.73;99770.68;1654594;85;22518;-74
2022/10/20 07:26:25;;;;;;;1.45;1.35;;;;;;;4.37;94.87;99754.48;1701813;84;21114;-71
2022/10/20 07:28:56;;;;;;;1.62;1.52;;;;;;;4.39;94.93;99764.42;1706056;84;21017;-71
2022/10/20 07:31:29;;;;;;;1.60;1.50;;;;;;;4.43;95.04;99763.48;1681721;84;21137;-74
2022/10/20 07:34:05;;;;;;;;;;;;;;;4.41;95.39;99782.35;1707966;82;21150;-73
2022/10/20 07:36:38;;;;;;;0.95;0.95;;;;;;;4.38;95.79;99772.92;1716009;82;20180;-80
2022/10/20 07:39:13;;;;;;;1.57;1.40;;;;;;;4.35;96.32;99783.99;1665168;85;21589;-77
2022/10/20 07:41:46;;;;;;;1.50;1.40;;;;;;;4.35;96.86;99791.16;1701227;83;21715;-80
2022/10/20 07:44:17;;;;;;;1.25;1.22;;;;;;;4.33;97.36;99772.72;1712788;83;21577;-79
2022/10/20 07:46:43;;;;;;;1.60;1.50;;;;;;;4.34;97.58;99783.68;1711309;83;21136;-82
2022/10/20 07:49:12;;;;;;;1.65;1.55;;;;;;;4.36;98.03;99788.27;1713405;83;21589;-80
2022/10/20 07:51:41;;;;;;;1.50;1.40;;;;;;;4.36;98.69;99791.47;1726160;82;20995;-77
2022/10/20 07:54:08;;;;;;;2.67;1.30;;;;;;;4.34;98.92;99776.20;1726064;82;21039;-73
2022/10/20 07:56:41;;;;;;;1.12;1.12;;;;;;;4.33;99.22;99791.35;1709883;82;21601;-79
2022/10/20 07:59:09;;;;;;;1.20;1.20;;;;;;;4.34;99.92;99790.84;1716650;82;21123;-74
2022/10/20 08:01:39;;;;;;;1.22;1.22;;;;;;;4.31;100.00;99797.42;1719668;82;21707;-73
2022/10/20 08:04:08;;;;;;;3.00;1.20;;;;;;;4.31;100.00;99795.27;1699559;82;21031;-78
2022/10/20 08:06:40;;;;;;;1.27;1.17;;;;;;;4.33;100.00;99792.69;1691203;83;21078;-79
2022/10/20 08:09:12;;;;;;;1.27;1.17;;;;;;;4.34;100.00;99786.85;1681003;83;21050;-79
2022/10/20 08:11:39;;;;;;;0.93;0.93;;;;;;;4.35;100.00;99789.83;1719322;82;21350;-79
2022/10/20 08:14:07;;;;;;;1.10;1.10;;;;;;;4.35;100.00;99790.65;1712946;82;21032;-79
2022/10/20 08:16:36;;;;;;;1.20;1.20;;;;;;;4.38;100.00;99792.06;1683490;84;20963;-77
2022/10/20 08:19:03;;;;;;;1.20;1.20;;;;;;;4.42;100.00;99795.13;1685486;83;21023;-81
2022/10/20 08:21:37;;;;;;;1.65;1.40;;;;;;;4.44;100.00;99799.74;1706410;83;21629;-79
2022/10/20 08:24:02;;;;;;;1.67;1.50;;;;;;;4.45;100.00;99812.04;1655698;86;21591;-79
2022/10/20 08:26:35;;;;;;;1.15;1.12;;;;;;;4.44;100.00;99803.73;1669977;84;21102;-78
2022/10/20 08:29:11;;;;;;;1.60;1.50;;;;;;;4.45;100.00;99806.20;1710464;82;21082;-81
2022/10/20 08:31:39;;;;;;;2.33;1.40;;;;;;;4.45;100.00;99812.04;1655563;84;21096;-81
2022/10/20 08:34:08;;;;;;;3.10;2.05;;;;;;;4.47;100.00;99800.64;1703345;83;21113;-76
2022/10/20 08:36:38;;;;;;;2.75;1.40;;;;;;;4.48;100.00;99812.94;1678646;84;21057;-75
2022/10/20 08:39:05;;;;;;;1.20;1.20;;;;;;;4.52;100.00;99806.17;1700359;84;21025;-75
2022/10/20 08:41:39;;;;;;;1.50;1.40;;;;;;;4.58;100.00;99806.68;1702115;82;21527;-75
2022/10/20 08:44:05;;;;;;;2.35;1.22;;;;;;;4.59;100.00;99817.64;1680891;85;21408;-75
2022/10/20 08:46:36;;;;;;;2.05;1.95;;;;;;;4.61;100.00;99804.92;1709393;83;21014;-76
2022/10/20 08:49:05;;;;;;;1.30;1.25;;;;;;;4.64;100.00;99817.84;1706239;83;21162;-78
2022/10/20 08:51:39;;;;;;;1.52;1.42;;;;;;;4.67;100.00;99826.23;1711190;83;20999;-75
2022/10/20 08:54:07;;;;;;;2.92;2.45;;;;;;;4.68;100.00;99823.88;1685338;83;21057;-77
2022/10/20 08:56:34;;;;;;;1.75;1.45;;;;;;;4.71;100.00;99810.64;1706625;83;21101;-78
2022/10/20 08:59:02;;;;;;;1.75;1.47;;;;;;;4.73;100.00;99831.24;1698139;84;21072;-77
2022/10/20 09:01:32;;;;;;;2.72;1.30;;;;;;;4.73;100.00;99836.06;1700676;82;21103;-79
2022/10/20 09:04:21;;;;;;;1.27;1.17;;;;;;;4.75;100.00;99835.83;1684214;83;21009;-83
2022/10/20 09:06:55;;;;;;;1.57;1.47;;;;;;;4.79;100.00;99852.55;1705221;83;21030;-79
2022/10/20 09:09:22;;;;;;;1.40;1.30;;;;;;;4.83;100.00;99845.77;1669585;83;21566;-83
2022/10/20 09:11:50;;;;;;;3.70;1.50;;;;;;;4.87;100.00;99842.69;1678929;83;21109;-79
2022/10/20 09:14:17;;;;;;;2.08;1.60;;;;;;;4.90;100.00;99857.73;1705916;84;21077;-83
2022/10/20 09:16:46;;;;;;;2.22;1.35;;;;;;;4.91;100.00;99843.89;1711893;82;21058;-79
2022/10/20 09:19:19;;;;;;;2.42;1.92;;;;;;;4.94;100.00;99850.95;1720256;82;21586;-77
2022/10/20 09:21:49;;;;;;;2.00;1.87;;;;;;;4.97;100.00;99846.55;1710310;82;23996;-77
2022/10/20 09:24:16;;;;;;;1.82;1.72;;;;;;;5.00;100.00;99851.45;1692381;84;21071;-81
2022/10/20 09:26:45;;;;;;;1.98;1.87;;;;;;;4.98;100.00;99849.53;1716898;83;21208;-83
2022/10/20 09:29:15;;;;;;;1.80;1.60;;;;;;;4.99;100.00;99850.35;1701394;83;21024;-75
2022/10/20 09:31:55;;;;;;;1.82;1.67;;;;;;;4.99;100.00;99841.02;1701769;83;21630;-73
2022/10/20 09:34:31;;;;;;;1.70;1.60;;;;;;;5.01;100.00;99856.27;1713727;82;21514;-77
2022/10/20 09:37:17;;;;;;;1.65;1.55;;;;;;;5.03;100.00;99845.72;1690356;84;21533;-79
2022/10/20 09:39:53;;;;;;;3.58;1.75;;;;;;;5.04;100.00;99863.33;1703549;84;21410;-75
2022/10/20 09:42:31;;;;;;;1.52;1.42;;;;;;;5.08;100.00;99858.42;1714898;83;21653;-78
2022/10/20 09:45:08;;;;;;;1.77;1.65;;;;;;;5.12;100.00;99860.97;1710349;82;22201;-74
2022/10/20 09:47:36;;;;;;;1.72;1.60;;;;;;;5.16;100.00;99872.84;1727658;82;21064;-87
2022/10/20 09:50:06;;;;;;;2.00;1.80;;;;;;;5.22;100.00;99874.16;1653576;84;20997;-74
2022/10/20 09:52:46;;;;;;;2.33;1.82;;;;;;;5.22;100.00;99874.16;1707042;82;21282;-76
2022/10/20 09:55:31;;;;;;;1.92;1.70;;;;;;;5.22;100.00;99867.50;1732379;82;21021;-75
2022/10/20 09:58:02;;;;;;;1.42;1.32;;;;;;;5.25;100.00;99884.39;1725904;82;21072;-78
2022/10/20 10:00:40;;;;;;;3.30;2.10;;;;;;;5.30;100.00;99881.09;1721830;82;21038;-80
2022/10/20 10:03:22;;;;;;;2.10;2.00;;;;;;;5.33;100.00;99883.84;1722030;81;21553;-77
2022/10/20 10:05:55;;;;;;;1.45;1.35;;;;;;;5.38;100.00;99897.36;1730415;82;21001;-76
2022/10/20 10:08:41;;;;;;;1.72;1.62;;;;;;;5.39;100.00;99892.34;1685499;84;21125;-90
2022/10/20 10:11:16;;;;;;;2.43;1.30;;;;;;;5.43;99.86;99889.55;1727364;82;21026;-77
2022/10/20 10:13:47;;;;;;;2.00;1.82;;;;;;;5.47;99.68;99902.25;1711172;83;21014;-80
2022/10/20 10:16:17;;;;;;;2.27;1.92;;;;;;;5.54;99.21;99898.23;1716086;82;21012;-79
2022/10/20 10:18:55;;;;;;;2.22;1.87;;;;;;;5.55;98.65;99900.70;1710549;83;21107;-77
2022/10/20 10:21:21;;;;;;;2.10;1.90;;;;;;;5.55;98.65;99900.70;1719046;82;21051;-79
2022/10/20 10:24:01;;;;;;;2.00;1.72;;;;;;;5.57;98.79;99882.61;1727065;82;21021;-75
2022/10/20 10:26:46;;;;;;;3.10;1.65;;;;;;;5.66;98.83;99904.02;1733551;82;21056;-79
2022/10/20 10:29:23;;;;;;;2.00;1.65;;;;;;;5.66;98.83;99904.02;1727005;82;21104;-78
2022/10/20 10:32:19;;;;;;;1.30;1.30;;;;;;;5.73;98.70;99891.16;1706474;82;21261;-80
2022/10/20 10:35:26;;;;;;;1.50;1.40;;;;;;;5.75;98.56;99892.59;1731866;82;21002;-81
2022/10/20 10:37:54;;;;;;;7.75;2.42;;;;;;;5.76;98.60;99918.23;1710689;82;21017;-75
2022/10/20 10:40:40;;;;;;;4.25;3.95;;;;;;;5.76;99.03;99913.41;1726606;82;21049;-79
2022/10/20 10:43:52;;;;;;;1.85;1.75;;;;;;;5.76;99.03;99913.41;1716345;82;20972;-75
2022/10/20 12:26:42;;;;;;;1.67;1.57;;;;;;;5.58;100.00;99988.81;1774769;75;93979;-80
2022/10/20 12:29:34;;;;;;;2.10;2.00;;;;;;;5.63;100.00;100017.84;1664648;85;21543;-78
2022/10/20 12:32:41;;;;;;;1.90;1.80;;;;;;;5.67;100.00;100012.39;1664094;85;21538;-77
2022/10/20 12:35:13;;;;;;;4.70;2.12;;;;;;;5.77;100.00;100017.28;1634686;85;21016;-75
2022/10/20 12:37:40;;;;;;;1.30;1.30;;;;;;;5.77;100.00;100017.28;1657103;85;21077;-80
2022/10/20 12:40:14;;;;;;;1.70;1.60;;;;;;;5.85;100.00;100034.39;1670380;85;21031;-79
2022/10/20 12:42:50;;;;;;;1.80;1.70;;;;;;;5.85;100.00;100034.39;1659637;85;21050;-81
2022/10/20 12:45:31;;;;;;;1.62;1.52;;;;;;;5.92;100.00;100037.08;1626840;86;21407;-76
2022/10/20 12:48:01;;;;;;;4.05;1.98;;;;;;;6.02;100.00;100045.46;1630199;86;21619;-76
2022/10/20 12:50:42;;;;;;;1.65;1.42;;;;;;;6.04;100.00;100050.87;1644907;86;21057;-79
2022/10/20 12:53:28;;;;;;;1.72;1.62;;;;;;;6.02;100.00;100039.61;1623470;88;21544;-76
2022/10/20 12:56:09;;;;;;;2.47;1.22;;;;;;;6.02;100.00;100039.61;1632076;86;21118;-73
2022/10/20 12:58:37;;;;;;;2.33;2.12;;;;;;;6.07;100.00;100061.67;1649647;86;21142;-73
2022/10/20 13:01:09;;;;;;;1.87;1.77;;;;;;;6.11;100.00;100062.88;1652300;84;21000;-80
2022/10/20 13:03:51;;;;;;;2.02;1.92;;;;;;;6.11;100.00;100065.55;1673414;85;21536;-77
2022/10/20 13:06:32;;;;;;;8.50;3.05;;;;;;;6.13;100.00;100095.03;1652709;85;20968;-74
2022/10/20 13:09:18;;;;;;;1.75;1.65;;;;;;;6.10;100.00;100072.73;1667188;85;21034;-76
2022/10/20 13:12:03;;;;;;;2.67;2.17;;;;;;;6.13;100.00;100080.86;1677874;85;21233;-75
2022/10/20 13:14:44;;;;;;;1.67;1.57;;;;;;;6.16;100.00;100073.75;1654234;85;21055;-79
2022/10/20 13:17:17;;;;;;;2.00;1.80;;;;;;;6.21;100.00;100081.95;1681382;84;20947;-90
2022/10/20 13:19:56;;;;;;;1.42;1.37;;;;;;;6.24;100.00;100085.52;1695580;83;21542;-79
2022/10/20 13:22:45;;;;;;;1.70;1.60;;;;;;;6.25;100.00;100091.17;1679240;84;21575;-75
2022/10/20 13:25:39;;;;;;;3.10;1.47;;;;;;;6.30;100.00;100102.55;1647709;83;21601;-78
2022/10/20 13:28:28;;;;;;;1.77;1.67;;;;;;;6.32;100.00;100100.50;1692105;83;21278;-74
2022/10/20 13:31:17;;;;;;;2.50;1.65;;;;;;;6.35;100.00;100102.23;1696779;83;21099;-75
2022/10/20 13:34:17;;;;;;;6.20;1.80;;;;;;;6.39;100.00;100105.28;1667406;84;21059;-76
2022/10/20 13:37:31;;;;;;;2.12;1.90;;;;;;;6.40;100.00;100121.11;1699119;83;21046;-76
2022/10/20 13:40:23;;;;;;;1.90;1.80;;;;;;;6.44;100.00;100130.34;1707927;83;21197;-77
2022/10/20 13:43:13;;;;;;;1.98;1.85;;;;;;;6.40;100.00;100129.13;1688090;83;20999;-74